Time;durP1;ratioP1;P1;durP2;ratioP2;P2;SDS_P1;SDS_P2;PMS_P1;PMS_P2;Temp;Humidity;BMP_temperature;BMP_pressure;BME280_temperature;BME280_humidity;BME280_pressure;Samples;Min_cycle;Max_cycle;Signal;HPM_P1;HPM_P2
2022/07/04 00:00:51;;;;;;;15.88;2.97;;;16.50;99.90;;;;;;4955957;28;20031;-72
2022/07/04 00:03:18;;;;;;;21.95;3.53;;;16.50;99.90;;;;;;4958059;28;20014;-75
2022/07/04 00:05:46;;;;;;;19.58;2.85;;;16.60;99.90;;;;;;4957448;28;20110;-74
2022/07/04 00:08:13;;;;;;;15.10;3.08;;;16.70;99.90;;;;;;4956540;28;20034;-72
2022/07/04 00:10:40;;;;;;;18.15;2.70;;;16.80;99.90;;;;;;4956089;28;20118;-73
2022/07/04 00:13:08;;;;;;;17.95;2.50;;;16.90;99.90;;;;;;4957821;28;20027;-73
2022/07/04 00:15:35;;;;;;;23.52;4.32;;;16.90;99.90;;;;;;4960539;28;20034;-74
2022/07/04 00:18:02;;;;;;;10.88;2.95;;;16.90;99.90;;;;;;4956174;28;20031;-70
2022/07/04 00:20:30;;;;;;;15.57;2.88;;;16.80;99.90;;;;;;4955399;28;20031;-73
2022/07/04 00:22:57;;;;;;;20.73;3.33;;;16.70;99.90;;;;;;4959538;28;20034;-70
2022/07/04 00:25:26;;;;;;;19.73;3.33;;;16.60;99.90;;;;;;4958618;28;20034;-73
2022/07/04 00:27:53;;;;;;;21.90;4.55;;;16.50;99.90;;;;;;4956784;28;20101;-73
2022/07/04 00:30:22;;;;;;;15.95;3.33;;;16.50;99.90;;;;;;4957390;28;20051;-73
2022/07/04 00:32:49;;;;;;;24.45;4.90;;;16.50;99.90;;;;;;4958984;28;20553;-71
2022/07/04 00:35:17;;;;;;;28.90;4.53;;;16.50;99.90;;;;;;4959206;28;20391;-71
2022/07/04 00:37:44;;;;;;;22.23;3.55;;;16.40;99.90;;;;;;4953099;28;20031;-71
2022/07/04 00:40:12;;;;;;;19.42;4.35;;;16.40;99.90;;;;;;4958864;28;20035;-72
2022/07/04 00:42:39;;;;;;;24.23;4.28;;;16.40;99.90;;;;;;4966967;28;20146;-73
2022/07/04 00:45:09;;;;;;;23.13;4.25;;;16.50;99.90;;;;;;4966142;28;20029;-72
2022/07/04 00:47:37;;;;;;;18.77;3.75;;;16.50;99.90;;;;;;4966997;28;20034;-73
2022/07/04 00:50:05;;;;;;;24.02;4.47;;;16.60;99.90;;;;;;4967131;28;20023;-72
2022/07/04 00:52:32;;;;;;;21.95;3.67;;;16.60;99.90;;;;;;4966185;28;20700;-74
2022/07/04 00:55:00;;;;;;;19.60;3.67;;;16.80;99.90;;;;;;4971922;28;20502;-73
2022/07/04 00:57:28;;;;;;;15.27;3.33;;;16.80;99.90;;;;;;4967087;28;20077;-73
2022/07/04 00:59:55;;;;;;;25.55;3.80;;;16.70;99.90;;;;;;4967104;28;20042;-71
2022/07/04 01:02:22;;;;;;;28.05;5.28;;;16.60;99.90;;;;;;4967044;28;20015;-71
2022/07/04 01:04:50;;;;;;;23.15;4.65;;;16.60;99.90;;;;;;4967233;28;20823;-72
2022/07/04 01:07:17;;;;;;;25.33;5.25;;;16.70;99.90;;;;;;4967855;28;20086;-71
2022/07/04 01:09:47;;;;;;;19.75;3.47;;;16.70;99.90;;;;;;4967143;28;20031;-71
2022/07/04 01:12:26;;;;;;;19.40;3.05;;;16.70;99.90;;;;;;4968690;28;20037;-72
2022/07/04 01:14:53;;;;;;;20.50;4.43;;;16.70;99.90;;;;;;4965164;28;20214;-72
2022/07/04 01:17:21;;;;;;;28.23;4.07;;;16.80;99.90;;;;;;4983471;28;20101;-74
2022/07/04 01:19:48;;;;;;;35.67;5.25;;;16.80;99.90;;;;;;4956434;28;20050;-73
2022/07/04 01:22:16;;;;;;;15.75;3.45;;;16.90;99.90;;;;;;4966530;28;20114;-72
2022/07/04 01:24:43;;;;;;;19.27;3.50;;;17.00;99.90;;;;;;4966104;28;20562;-72
2022/07/04 01:27:10;;;;;;;20.45;3.60;;;17.10;99.90;;;;;;4967271;28;20384;-69
2022/07/04 01:29:38;;;;;;;19.98;4.57;;;17.10;99.90;;;;;;4964396;28;20047;-70
2022/07/04 01:32:07;;;;;;;24.15;5.05;;;17.00;99.90;;;;;;4967713;28;20027;-68
2022/07/04 01:34:36;;;;;;;33.78;7.00;;;16.90;99.90;;;;;;4968223;28;20019;-70
2022/07/04 01:37:04;;;;;;;23.65;5.30;;;16.80;99.90;;;;;;4967123;28;20022;-69
2022/07/04 01:39:31;;;;;;;28.25;6.53;;;16.70;99.90;;;;;;4968823;28;20023;-72
2022/07/04 01:41:58;;;;;;;26.90;4.93;;;16.80;99.90;;;;;;4950581;28;20110;-71
2022/07/04 01:44:26;;;;;;;25.55;4.97;;;16.80;99.90;;;;;;4966336;28;20060;-70
2022/07/04 01:46:53;;;;;;;27.40;5.05;;;16.70;99.90;;;;;;4965403;28;20364;-71
2022/07/04 01:49:23;;;;;;;29.63;5.32;;;16.60;99.90;;;;;;4965908;28;20031;-71
2022/07/04 01:51:51;;;;;;;34.53;5.30;;;16.60;99.90;;;;;;4966341;28;20034;-73
2022/07/04 01:54:19;;;;;;;25.27;4.60;;;16.60;99.90;;;;;;4966262;28;20023;-70
2022/07/04 01:56:47;;;;;;;29.38;5.35;;;16.60;99.90;;;;;;4965305;28;20030;-71
2022/07/04 01:59:14;;;;;;;35.28;5.97;;;16.60;99.90;;;;;;4964957;28;20046;-72
2022/07/04 02:01:42;;;;;;;24.70;4.97;;;16.70;99.90;;;;;;4965685;28;20439;-71
2022/07/04 02:04:10;;;;;;;27.50;4.22;;;16.70;99.90;;;;;;4965304;28;20050;-73
2022/07/04 02:06:37;;;;;;;27.58;5.03;;;16.70;99.90;;;;;;4965100;28;20069;-71
2022/07/04 02:09:17;;;;;;;34.17;6.88;;;16.60;99.90;;;;;;4965260;28;20110;-72
2022/07/04 02:14:33;;;;;;;35.05;6.32;;;16.70;99.90;;;;;;4949535;28;20071;-71
2022/07/04 02:17:01;;;;;;;46.17;6.68;;;16.70;99.90;;;;;;4976689;28;20026;-72
2022/07/04 02:19:29;;;;;;;32.28;6.53;;;16.70;99.90;;;;;;4966417;28;20035;-73
2022/07/04 02:21:57;;;;;;;42.60;7.60;;;16.80;99.90;;;;;;4966952;28;20034;-72
2022/07/04 02:24:24;;;;;;;34.88;7.45;;;16.80;99.90;;;;;;4967369;28;20038;-73
2022/07/04 02:26:53;;;;;;;43.33;7.50;;;16.80;99.90;;;;;;4966635;28;20058;-73
2022/07/04 02:29:20;;;;;;;27.27;6.35;;;16.90;99.90;;;;;;4965738;28;20031;-73
2022/07/04 02:31:47;;;;;;;28.25;7.93;;;17.00;99.90;;;;;;4965449;28;20500;-69
2022/07/04 02:34:15;;;;;;;36.97;8.05;;;17.00;99.90;;;;;;4964807;28;20038;-72
2022/07/04 02:36:42;;;;;;;31.70;6.50;;;17.10;99.90;;;;;;4963890;28;20031;-72
2022/07/04 02:39:09;;;;;;;25.73;4.35;;;17.10;99.90;;;;;;4963326;28;20046;-71
2022/07/04 02:41:41;;;;;;;32.85;4.72;;;17.30;99.90;;;;;;4964532;28;20073;-72
2022/07/04 02:44:08;;;;;;;23.00;4.13;;;17.60;99.90;;;;;;4963453;28;20043;-70
2022/07/04 02:46:36;;;;;;;25.42;4.45;;;17.80;99.90;;;;;;4971845;28;20024;-70
2022/07/04 02:49:04;;;;;;;27.50;4.57;;;17.80;99.90;;;;;;4964973;28;20023;-71
2022/07/04 02:51:32;;;;;;;34.63;6.90;;;17.80;99.90;;;;;;4965888;28;20030;-70
2022/07/04 02:53:59;;;;;;;28.60;6.85;;;17.90;99.90;;;;;;4964072;28;20023;-71
2022/07/04 02:56:27;;;;;;;26.45;4.53;;;17.80;99.90;;;;;;4973924;28;20041;-71
2022/07/04 02:58:54;;;;;;;26.42;5.90;;;17.80;99.90;;;;;;4968389;28;20118;-70
2022/07/04 03:01:21;;;;;;;15.40;3.55;;;17.80;99.90;;;;;;4969375;28;20221;-69
2022/07/04 03:03:49;;;;;;;15.18;3.00;;;17.80;99.90;;;;;;4968067;28;20081;-72
2022/07/04 03:06:16;;;;;;;17.75;3.65;;;17.80;99.90;;;;;;4968111;28;20093;-71
2022/07/04 03:08:44;;;;;;;27.15;4.22;;;17.80;99.90;;;;;;4968657;28;20051;-72
2022/07/04 03:11:11;;;;;;;26.45;5.47;;;17.80;99.90;;;;;;4968591;28;20085;-71
2022/07/04 03:13:41;;;;;;;19.15;4.25;;;17.80;99.90;;;;;;4969068;28;20421;-70
2022/07/04 03:16:08;;;;;;;29.30;5.10;;;17.90;99.90;;;;;;4968546;28;20045;-71
2022/07/04 03:18:35;;;;;;;24.33;4.90;;;18.10;99.90;;;;;;4969856;28;20534;-69
2022/07/04 03:21:06;;;;;;;20.50;4.43;;;18.20;99.90;;;;;;4969182;28;20027;-68
2022/07/04 03:23:35;;;;;;;24.83;3.17;;;18.20;99.90;;;;;;4968687;28;20503;-68
2022/07/04 03:26:05;;;;;;;22.77;4.53;;;18.20;99.90;;;;;;4968732;28;20062;-68
2022/07/04 03:28:35;;;;;;;15.68;3.47;;;18.40;99.90;;;;;;4968928;28;20019;-68
2022/07/04 03:31:02;;;;;;;26.60;4.75;;;18.40;99.90;;;;;;4967748;28;20444;-68
2022/07/04 03:33:29;;;;;;;16.73;3.33;;;18.40;99.90;;;;;;4967093;28;20030;-70
2022/07/04 03:35:57;;;;;;;20.02;4.15;;;18.50;99.90;;;;;;4968053;28;20049;-69
2022/07/04 03:38:24;;;;;;;19.17;4.90;;;18.50;99.90;;;;;;4970148;28;20055;-69
2022/07/04 03:40:51;;;;;;;18.35;3.35;;;18.50;99.90;;;;;;4967999;28;20113;-67
2022/07/04 03:43:18;;;;;;;15.18;3.00;;;18.50;99.90;;;;;;4968344;28;20050;-66
2022/07/04 03:45:46;;;;;;;15.30;3.30;;;18.50;99.90;;;;;;4968966;28;20499;-71
2022/07/04 03:48:13;;;;;;;21.33;3.95;;;18.50;99.90;;;;;;4967772;28;20476;-71
2022/07/04 03:50:40;;;;;;;16.05;3.47;;;18.60;99.90;;;;;;4968167;28;20087;-69
2022/07/04 03:53:08;;;;;;;20.35;4.68;;;18.60;99.90;;;;;;4967567;28;20054;-71
2022/07/04 03:55:35;;;;;;;19.23;3.38;;;18.50;99.90;;;;;;4967439;28;20412;-69
2022/07/04 03:58:04;;;;;;;17.75;3.47;;;18.40;99.90;;;;;;4967926;28;20503;-68
2022/07/04 04:00:34;;;;;;;13.73;3.28;;;18.30;99.90;;;;;;4967971;28;20043;-71
2022/07/04 04:03:01;;;;;;;17.15;4.38;;;18.10;99.90;;;;;;4968141;28;20124;-69
2022/07/04 04:05:32;;;;;;;15.20;3.78;;;17.80;99.90;;;;;;4967783;28;20661;-70
2022/07/04 04:08:01;;;;;;;18.92;3.60;;;17.70;99.90;;;;;;4966688;28;20093;-69
2022/07/04 04:10:32;;;;;;;20.50;5.10;;;17.50;99.90;;;;;;4964138;28;20023;-68
2022/07/04 04:13:00;;;;;;;21.38;4.28;;;17.30;99.90;;;;;;4967380;28;20030;-69
2022/07/04 04:15:27;;;;;;;18.08;3.95;;;17.30;99.90;;;;;;4967992;28;20106;-67
2022/07/04 04:17:54;;;;;;;14.55;3.47;;;17.20;99.90;;;;;;4967335;28;20098;-69
2022/07/04 04:20:22;;;;;;;14.98;3.15;;;17.20;99.90;;;;;;4967585;28;20031;-71
2022/07/04 04:22:50;;;;;;;24.17;4.72;;;17.00;99.90;;;;;;4965747;28;20046;-69
2022/07/04 04:25:18;;;;;;;24.83;4.68;;;17.00;99.90;;;;;;4967822;28;20031;-69
2022/07/04 04:27:46;;;;;;;25.27;5.20;;;17.00;99.90;;;;;;4968107;28;20068;-70
2022/07/04 04:30:14;;;;;;;29.33;4.57;;;17.00;99.90;;;;;;4966707;28;20062;-70
2022/07/04 04:32:41;;;;;;;19.42;4.28;;;17.00;99.90;;;;;;4965873;28;20033;-68
2022/07/04 04:35:09;;;;;;;17.38;3.75;;;17.10;99.90;;;;;;4961900;28;20046;-70
2022/07/04 04:37:36;;;;;;;20.88;4.53;;;17.10;99.90;;;;;;4966325;28;20496;-69
2022/07/04 04:40:04;;;;;;;22.13;4.93;;;17.20;99.90;;;;;;4966599;28;20113;-67
2022/07/04 04:42:31;;;;;;;19.70;4.63;;;17.20;99.90;;;;;;4966937;28;20034;-68
2022/07/04 04:44:58;;;;;;;27.13;4.38;;;17.30;99.90;;;;;;4967221;28;20665;-70
2022/07/04 04:47:26;;;;;;;27.40;4.43;;;17.30;99.90;;;;;;4967187;28;20019;-69
2022/07/04 04:49:54;;;;;;;30.98;4.18;;;17.30;99.90;;;;;;4967516;28;20034;-70
2022/07/04 04:52:21;;;;;;;24.55;5.22;;;17.40;99.90;;;;;;4964439;28;20472;-69
2022/07/04 04:54:48;;;;;;;27.83;4.15;;;17.30;99.90;;;;;;4967002;28;20026;-69
2022/07/04 04:57:16;;;;;;;24.92;5.07;;;17.30;99.90;;;;;;4966668;28;20082;-71
2022/07/04 04:59:43;;;;;;;27.77;3.38;;;17.30;99.90;;;;;;4966884;28;20035;-70
2022/07/04 05:02:11;;;;;;;27.05;4.10;;;17.30;99.90;;;;;;4966658;28;20018;-71
2022/07/04 05:04:38;;;;;;;19.02;3.78;;;17.20;99.90;;;;;;4966927;28;20463;-69
2022/07/04 05:07:05;;;;;;;28.80;4.15;;;17.20;99.90;;;;;;4967485;28;20035;-70
2022/07/04 05:09:32;;;;;;;30.98;5.78;;;17.20;99.90;;;;;;4966520;28;20023;-70
2022/07/04 05:12:00;;;;;;;24.45;4.40;;;17.20;99.90;;;;;;4965229;28;20026;-70
2022/07/04 05:14:28;;;;;;;33.63;6.10;;;17.10;99.90;;;;;;4963254;28;20089;-69
2022/07/04 05:16:56;;;;;;;29.05;5.47;;;17.10;99.90;;;;;;4967293;28;20146;-67
2022/07/04 05:19:23;;;;;;;25.48;5.20;;;17.10;99.90;;;;;;4949482;28;20514;-68
2022/07/04 05:21:51;;;;;;;24.08;5.38;;;17.10;99.90;;;;;;4947318;28;20154;-70
2022/07/04 05:24:18;;;;;;;25.52;3.95;;;17.00;99.90;;;;;;4960771;28;20050;-72
2022/07/04 05:26:45;;;;;;;30.38;4.43;;;17.00;99.90;;;;;;4966626;28;20050;-69
2022/07/04 05:29:13;;;;;;;30.17;6.53;;;17.00;99.90;;;;;;4966892;28;20032;-68
2022/07/04 05:31:40;;;;;;;26.50;4.43;;;17.00;99.90;;;;;;4966439;28;20042;-70
2022/07/04 05:34:07;;;;;;;20.75;3.45;;;17.00;99.90;;;;;;4964026;28;20098;-69
2022/07/04 05:36:34;;;;;;;15.55;2.20;;;16.90;99.90;;;;;;4965780;28;20019;-69
2022/07/04 05:39:02;;;;;;;22.17;3.35;;;16.80;99.90;;;;;;4966505;28;20014;-69
2022/07/04 05:41:29;;;;;;;17.40;3.45;;;16.80;99.90;;;;;;4965487;28;20495;-69
2022/07/04 05:43:56;;;;;;;19.42;2.60;;;16.80;99.90;;;;;;4965636;28;20471;-68
2022/07/04 05:46:24;;;;;;;23.17;3.83;;;16.70;99.90;;;;;;4965594;28;20531;-68
2022/07/04 05:48:51;;;;;;;22.60;3.67;;;16.70;99.90;;;;;;4965818;28;20102;-67
2022/07/04 05:51:18;;;;;;;28.88;4.88;;;16.70;99.90;;;;;;4966167;28;20026;-67
2022/07/04 05:53:45;;;;;;;24.95;3.67;;;16.70;99.90;;;;;;4965269;28;20051;-67
2022/07/04 05:56:13;;;;;;;26.65;3.88;;;16.70;99.90;;;;;;4965463;28;20058;-68
2022/07/04 05:58:40;;;;;;;25.80;4.18;;;16.60;99.90;;;;;;4965440;28;20519;-69
2022/07/04 06:01:08;;;;;;;21.58;4.60;;;16.60;99.90;;;;;;4965748;28;20031;-68
2022/07/04 06:03:38;;;;;;;19.80;3.50;;;16.60;99.90;;;;;;4965729;28;20093;-67
2022/07/04 06:06:06;;;;;;;26.52;4.70;;;16.50;99.90;;;;;;4966187;28;20101;-70
2022/07/04 06:08:34;;;;;;;27.65;6.05;;;16.40;99.90;;;;;;4965379;28;20026;-70
2022/07/04 06:11:03;;;;;;;16.67;2.55;;;16.40;99.90;;;;;;4965756;28;20027;-67
2022/07/04 06:13:30;;;;;;;16.90;3.88;;;16.30;99.90;;;;;;4965067;28;20479;-68
2022/07/04 06:15:57;;;;;;;20.27;4.70;;;16.20;99.90;;;;;;4966203;28;20022;-70
2022/07/04 06:18:25;;;;;;;18.30;3.03;;;16.20;99.90;;;;;;4955941;28;20082;-68
2022/07/04 06:20:52;;;;;;;16.92;2.65;;;16.20;99.90;;;;;;4946403;28;20372;-70
2022/07/04 06:23:20;;;;;;;24.65;4.53;;;16.20;99.90;;;;;;4962288;28;20033;-71
2022/07/04 06:25:47;;;;;;;24.13;3.10;;;16.20;99.90;;;;;;4963758;28;20027;-69
2022/07/04 06:28:14;;;;;;;21.25;2.90;;;16.30;99.90;;;;;;4965400;28;20081;-70
2022/07/04 06:30:42;;;;;;;22.15;4.25;;;16.20;99.90;;;;;;4965433;28;20121;-70
2022/07/04 06:33:09;;;;;;;26.88;3.20;;;16.20;99.90;;;;;;4965633;28;20516;-72
2022/07/04 06:35:45;;;;;;;16.38;3.55;;;16.10;99.90;;;;;;4965368;28;20515;-70
2022/07/04 06:38:28;;;;;;;20.52;4.07;;;16.10;99.90;;;;;;4965445;28;20118;-72
2022/07/04 06:40:56;;;;;;;;;;;16.10;99.90;;;;;;4965871;28;20043;-72
2022/07/04 06:43:24;;;;;;;15.15;3.05;;;16.10;99.90;;;;;;4963409;28;20391;-69
2022/07/04 06:45:52;;;;;;;16.65;3.63;;;16.10;99.90;;;;;;4965396;28;20476;-70
2022/07/04 06:48:19;;;;;;;17.35;3.35;;;16.10;99.90;;;;;;4964554;28;20357;-70
2022/07/04 06:50:47;;;;;;;24.95;4.28;;;16.10;99.90;;;;;;4965246;28;20563;-69
2022/07/04 06:53:14;;;;;;;19.23;3.03;;;16.10;99.90;;;;;;4964975;28;20023;-70
2022/07/04 06:55:42;;;;;;;18.23;3.05;;;16.10;99.90;;;;;;4967872;28;20038;-71
2022/07/04 06:58:10;;;;;;;13.27;2.70;;;16.10;99.90;;;;;;4984487;28;20050;-72
2022/07/04 07:00:38;;;;;;;16.35;4.32;;;16.10;99.90;;;;;;4984526;28;20049;-70
2022/07/04 07:03:05;;;;;;;17.05;3.58;;;16.00;99.90;;;;;;4962976;28;20010;-71
2022/07/04 07:05:36;;;;;;;20.40;3.40;;;16.00;99.90;;;;;;4959466;28;20051;-72
2022/07/04 07:08:05;;;;;;;13.43;3.50;;;16.00;99.90;;;;;;4964132;28;20019;-69
2022/07/04 07:10:32;;;;;;;15.48;3.90;;;15.90;99.90;;;;;;4964492;28;20450;-73
2022/07/04 07:13:00;;;;;;;11.60;3.42;;;15.90;99.90;;;;;;4958716;28;20019;-69
2022/07/04 07:15:27;;;;;;;14.60;3.83;;;15.90;99.90;;;;;;4945943;28;20031;-69
2022/07/04 07:17:55;;;;;;;7.68;1.83;;;15.80;99.90;;;;;;4947974;28;20016;-73
2022/07/04 07:20:22;;;;;;;7.63;1.95;;;15.80;99.90;;;;;;4971574;28;20488;-68
2022/07/04 07:22:49;;;;;;;7.43;2.17;;;15.70;99.90;;;;;;4956011;28;20086;-68
2022/07/04 07:25:17;;;;;;;12.52;3.25;;;15.70;99.90;;;;;;4954684;28;20054;-71
2022/07/04 07:27:44;;;;;;;11.60;2.80;;;15.70;99.90;;;;;;4953178;28;20015;-69
2022/07/04 07:30:13;;;;;;;20.15;3.55;;;15.70;99.90;;;;;;4955078;28;20780;-72
2022/07/04 07:32:40;;;;;;;12.85;4.22;;;15.70;99.90;;;;;;4953546;28;20050;-66
2022/07/04 07:35:10;;;;;;;24.90;6.28;;;15.80;99.90;;;;;;4951928;28;20023;-66
2022/07/04 07:37:38;;;;;;;29.77;3.95;;;15.80;99.90;;;;;;4956691;28;20038;-69
2022/07/04 07:40:06;;;;;;;25.38;3.80;;;15.90;99.90;;;;;;4955208;28;20511;-69
2022/07/04 07:42:33;;;;;;;27.45;4.47;;;15.90;99.90;;;;;;4959489;28;20030;-66
2022/07/04 07:45:01;;;;;;;25.75;5.72;;;15.90;99.90;;;;;;4960561;28;20023;-75
2022/07/04 07:47:28;;;;;;;22.10;3.60;;;15.90;99.90;;;;;;4958130;28;20484;-70
2022/07/04 07:49:59;;;;;;;34.35;4.63;;;15.90;99.90;;;;;;4957717;28;20514;-64
2022/07/04 07:52:26;;;;;;;21.50;3.40;;;15.90;99.90;;;;;;4955440;28;20046;-66
2022/07/04 07:54:53;;;;;;;21.55;3.55;;;15.90;99.90;;;;;;4958944;28;20094;-70
2022/07/04 07:57:21;;;;;;;20.45;3.47;;;15.80;99.90;;;;;;4956710;28;20031;-71
2022/07/04 07:59:48;;;;;;;24.90;4.57;;;15.90;99.90;;;;;;4959318;28;20495;-68
2022/07/04 08:02:15;;;;;;;26.70;5.35;;;15.90;99.90;;;;;;4956731;28;20031;-71
2022/07/04 08:04:42;;;;;;;29.25;5.38;;;15.90;99.90;;;;;;4957163;28;20555;-73
2022/07/04 08:07:14;;;;;;;25.80;5.78;;;15.90;99.90;;;;;;4958425;28;20046;-74
2022/07/04 08:09:42;;;;;;;33.03;4.55;;;15.90;99.90;;;;;;4958773;28;20023;-75
2022/07/04 08:12:12;;;;;;;25.40;4.93;;;15.90;99.90;;;;;;4958993;28;20038;-68
2022/07/04 08:14:39;;;;;;;20.52;4.07;;;15.90;99.90;;;;;;4956878;28;20102;-69
2022/07/04 08:17:08;;;;;;;10.32;2.35;;;15.90;99.90;;;;;;4957507;28;21583;-68
2022/07/04 08:19:35;;;;;;;17.27;4.38;;;15.80;99.90;;;;;;4954186;28;20023;-66
2022/07/04 08:22:02;;;;;;;25.88;3.78;;;15.70;99.90;;;;;;4958296;28;20023;-68
2022/07/04 08:24:30;;;;;;;25.90;3.78;;;15.70;99.90;;;;;;4950241;28;20031;-66
2022/07/04 08:26:57;;;;;;;20.52;3.40;;;15.70;99.90;;;;;;4955287;28;20077;-75
2022/07/04 08:29:26;;;;;;;27.65;7.55;;;15.70;99.90;;;;;;4967770;28;20101;-76
2022/07/04 08:31:54;;;;;;;27.25;4.32;;;15.70;99.90;;;;;;4966939;28;20070;-65
2022/07/04 08:34:21;;;;;;;31.05;7.35;;;15.70;99.90;;;;;;4966802;28;20077;-67
2022/07/04 08:36:48;;;;;;;29.08;5.28;;;15.70;99.90;;;;;;4966526;28;20530;-68
2022/07/04 08:39:16;;;;;;;26.20;6.57;;;15.70;99.90;;;;;;4966899;28;20086;-68
2022/07/04 08:41:44;;;;;;;42.20;6.55;;;15.70;99.90;;;;;;4966758;28;20054;-69
2022/07/04 08:44:11;;;;;;;29.58;5.97;;;15.70;99.90;;;;;;4967195;28;20030;-67
2022/07/04 08:46:40;;;;;;;42.97;6.78;;;15.80;99.90;;;;;;4967060;28;20018;-70
2022/07/04 08:49:22;;;;;;;33.47;6.80;;;15.80;99.90;;;;;;4966912;28;20487;-67
2022/07/04 08:51:55;;;;;;;37.30;6.72;;;15.80;99.90;;;;;;4967090;28;20502;-69
2022/07/04 09:00:02;;;;;;;32.78;5.13;;;15.80;99.90;;;;;;4966257;28;20052;-65
2022/07/04 09:02:30;;;;;;;27.33;4.90;;;15.70;99.90;;;;;;4967018;28;20022;-65
2022/07/04 09:04:57;;;;;;;39.70;6.15;;;15.70;99.90;;;;;;4966563;28;20041;-65
2022/07/04 09:07:28;;;;;;;44.78;6.35;;;15.70;99.90;;;;;;4966743;28;20105;-67
2022/07/04 09:09:57;;;;;;;32.55;6.07;;;15.70;99.90;;;;;;4966231;28;20027;-66
2022/07/04 09:12:24;;;;;;;30.55;5.53;;;15.70;99.90;;;;;;4967170;28;20027;-67
2022/07/04 09:14:52;;;;;;;30.58;4.85;;;15.80;99.90;;;;;;4966194;28;20052;-76
2022/07/04 09:17:20;;;;;;;33.03;5.55;;;15.80;99.90;;;;;;4966399;28;20037;-67
2022/07/04 09:20:19;;;;;;;38.22;6.13;;;15.80;99.90;;;;;;4964033;28;20026;-65
2022/07/04 09:22:47;;;;;;;34.45;4.90;;;15.80;99.90;;;;;;4965882;28;20066;-65
2022/07/04 09:25:15;;;;;;;29.13;5.32;;;15.80;99.90;;;;;;4965585;28;20468;-65
2022/07/04 09:27:50;;;;;;;20.88;4.57;;;15.80;99.90;;;;;;4966224;28;20035;-67
2022/07/04 09:30:23;;;;;;;35.30;6.97;;;15.80;99.90;;;;;;4965738;28;20047;-67
2022/07/04 09:32:54;;;;;;;26.08;5.22;;;15.80;99.90;;;;;;4966018;28;20049;-65
2022/07/04 09:35:24;;;;;;;28.13;5.25;;;15.80;99.90;;;;;;4964420;28;20023;-67
2022/07/04 09:38:04;;;;;;;25.50;4.28;;;15.80;99.90;;;;;;4959613;28;20027;-65
2022/07/04 09:40:33;;;;;;;22.38;4.28;;;15.80;99.90;;;;;;4961554;28;20192;-70
2022/07/04 09:43:12;;;;;;;24.05;4.55;;;15.80;99.90;;;;;;4955307;28;20099;-68
2022/07/04 09:45:55;;;;;;;29.60;6.13;;;15.80;99.90;;;;;;4964252;28;20035;-64
2022/07/04 09:48:27;;;;;;;23.90;3.80;;;15.80;99.90;;;;;;4963935;28;20050;-69
2022/07/04 09:50:54;;;;;;;33.92;5.75;;;15.70;99.90;;;;;;4963456;28;20037;-67
2022/07/04 09:53:27;;;;;;;28.40;4.68;;;15.70;99.90;;;;;;4955672;28;20035;-66
2022/07/04 09:55:55;;;;;;;28.00;6.53;;;15.80;99.90;;;;;;4964224;28;20527;-69
2022/07/04 09:58:22;;;;;;;23.55;3.97;;;15.80;99.90;;;;;;4956021;28;20122;-65
2022/07/04 10:00:51;;;;;;;21.20;4.25;;;15.80;99.90;;;;;;4963784;28;20046;-66
2022/07/04 10:03:25;;;;;;;27.98;5.03;;;15.80;99.90;;;;;;4951599;28;20055;-66
2022/07/04 10:06:10;;;;;;;29.27;5.18;;;15.70;99.90;;;;;;4963590;28;20023;-67
2022/07/04 10:08:41;;;;;;;16.45;3.53;;;15.70;99.90;;;;;;4964018;28;20084;-66
2022/07/04 10:11:09;;;;;;;31.67;4.78;;;15.60;99.90;;;;;;4963649;28;20026;-65
2022/07/04 10:13:37;;;;;;;28.52;4.60;;;15.50;99.90;;;;;;4964443;28;20050;-65
2022/07/04 10:16:05;;;;;;;28.90;5.47;;;15.50;99.90;;;;;;4964988;28;20030;-68
2022/07/04 10:18:34;;;;;;;27.42;4.47;;;15.50;99.90;;;;;;4965793;28;20074;-64
2022/07/04 10:21:01;;;;;;;27.33;6.07;;;15.50;99.90;;;;;;4965598;28;20066;-72
2022/07/04 10:23:31;;;;;;;25.80;6.40;;;15.60;99.90;;;;;;4965152;28;20072;-68
2022/07/04 10:25:59;;;;;;;30.92;6.40;;;15.60;99.90;;;;;;4966129;28;20496;-64
2022/07/04 10:28:27;;;;;;;29.73;5.32;;;15.50;99.90;;;;;;4966140;28;20157;-66
2022/07/04 10:30:57;;;;;;;24.33;4.20;;;15.60;99.90;;;;;;4965120;28;20047;-67
2022/07/04 10:33:29;;;;;;;32.30;4.85;;;15.60;99.90;;;;;;4963978;28;20035;-69
2022/07/04 10:36:01;;;;;;;24.77;3.65;;;15.60;99.90;;;;;;4965551;28;20023;-68
2022/07/04 10:38:48;;;;;;;26.45;3.90;;;15.50;99.90;;;;;;4964291;28;20634;-65
2022/07/04 10:41:18;;;;;;;23.60;3.63;;;15.50;99.90;;;;;;4958861;28;20619;-71
2022/07/04 10:43:53;;;;;;;21.08;4.07;;;15.50;99.90;;;;;;4965151;28;20034;-68
2022/07/04 10:46:31;;;;;;;29.23;4.00;;;15.40;99.90;;;;;;4965812;28;20472;-65
2022/07/04 10:49:03;;;;;;;23.52;4.88;;;15.40;99.90;;;;;;4964720;28;20637;-71
2022/07/04 10:51:45;;;;;;;22.63;3.67;;;15.40;99.90;;;;;;4964614;28;20031;-67
2022/07/04 10:54:32;;;;;;;19.38;4.15;;;15.40;99.90;;;;;;4964053;28;20118;-68
2022/07/04 10:57:13;;;;;;;25.35;4.40;;;15.40;99.90;;;;;;4965398;28;20038;-71
2022/07/04 10:59:43;;;;;;;25.67;4.20;;;15.50;99.90;;;;;;4964633;28;20429;-67
2022/07/04 11:02:10;;;;;;;25.67;4.88;;;15.50;99.90;;;;;;4965279;28;20037;-69
2022/07/04 11:05:06;;;;;;;22.55;3.97;;;15.40;99.90;;;;;;4964203;28;20022;-66
2022/07/04 11:07:42;;;;;;;21.80;4.03;;;15.40;99.90;;;;;;4965448;28;20379;-67
2022/07/04 11:12:55;;;;;;;24.08;4.55;;;15.40;99.90;;;;;;4965013;28;20039;-69
2022/07/04 11:15:28;;;;;;;33.30;8.15;;;15.40;99.90;;;;;;4965895;28;20193;-68
2022/07/04 11:18:01;;;;;;;29.23;4.60;;;15.40;99.90;;;;;;4970078;28;20027;-67
2022/07/04 11:20:31;;;;;;;26.10;4.10;;;15.50;99.90;;;;;;4968961;28;20041;-64
2022/07/04 11:23:11;;;;;;;20.48;5.25;;;15.50;99.90;;;;;;4970040;28;20109;-73
2022/07/04 11:25:41;;;;;;;15.95;4.63;;;15.50;99.90;;;;;;4963882;28;20038;-68
2022/07/04 11:28:35;;;;;;;22.25;3.53;;;15.40;99.90;;;;;;4983386;28;20022;-64
2022/07/04 11:31:03;;;;;;;23.83;4.43;;;15.30;99.90;;;;;;4975919;28;20492;-69
2022/07/04 11:33:36;;;;;;;35.50;5.65;;;15.40;99.90;;;;;;4968440;28;20059;-66
2022/07/04 11:36:15;;;;;;;40.78;7.18;;;15.40;99.90;;;;;;4968316;28;20555;-66
2022/07/04 11:38:57;;;;;;;40.20;6.57;;;15.40;99.90;;;;;;4968782;28;20030;-65
2022/07/04 11:47:20;;;;;;;37.22;6.15;;;15.40;99.90;;;;;;4968816;28;20065;-65
2022/07/04 11:49:55;;;;;;;34.53;5.03;;;15.40;99.90;;;;;;4968969;28;20045;-63
2022/07/04 11:52:30;;;;;;;28.05;5.30;;;15.40;99.90;;;;;;4968468;28;20027;-63
2022/07/04 11:54:58;;;;;;;20.75;3.63;;;15.40;99.90;;;;;;4969010;28;20546;-66
2022/07/04 11:57:28;;;;;;;22.75;3.60;;;15.30;99.90;;;;;;4967791;28;20030;-66
2022/07/04 12:00:09;;;;;;;36.13;4.72;;;15.20;99.90;;;;;;4967305;28;20034;-67
2022/07/04 12:02:39;;;;;;;30.33;6.95;;;15.30;99.90;;;;;;4966787;28;20026;-68
2022/07/04 12:05:08;;;;;;;34.35;4.55;;;15.30;99.90;;;;;;4966665;28;20431;-70
2022/07/04 12:07:39;;;;;;;29.15;4.57;;;15.30;99.90;;;;;;4967899;28;20023;-67
2022/07/04 12:10:21;;;;;;;36.85;6.22;;;15.30;99.90;;;;;;4967606;28;20077;-65
2022/07/04 12:12:54;;;;;;;25.63;4.20;;;15.30;99.90;;;;;;4968304;28;20383;-66
2022/07/04 12:15:23;;;;;;;28.80;5.03;;;15.30;99.90;;;;;;4968513;28;20038;-67
2022/07/04 12:17:54;;;;;;;28.17;5.20;;;15.40;99.90;;;;;;4964523;28;20019;-65
2022/07/04 12:20:23;;;;;;;27.45;4.55;;;15.40;99.90;;;;;;4961894;28;20062;-66
2022/07/04 12:23:01;;;;;;;24.20;4.05;;;15.40;99.90;;;;;;4967119;28;20077;-66
2022/07/04 12:25:37;;;;;;;24.25;3.55;;;15.40;99.90;;;;;;4967954;28;20022;-67
2022/07/04 12:28:08;;;;;;;22.40;4.03;;;15.30;99.90;;;;;;4967645;28;20023;-65
2022/07/04 12:30:40;;;;;;;39.92;6.20;;;15.30;99.90;;;;;;4967563;28;20105;-70
2022/07/04 12:33:09;;;;;;;47.45;6.10;;;15.30;99.90;;;;;;4967803;28;20023;-64
2022/07/04 12:35:47;;;;;;;38.83;6.00;;;15.30;99.90;;;;;;4967942;28;20553;-64
2022/07/04 12:38:22;;;;;;;40.20;6.18;;;15.30;99.90;;;;;;4966054;28;20420;-66
2022/07/04 12:40:53;;;;;;;31.60;4.90;;;15.40;99.90;;;;;;4967423;28;20038;-65
2022/07/04 12:43:25;;;;;;;24.42;5.20;;;15.40;99.90;;;;;;4967958;28;20019;-65
2022/07/04 12:45:56;;;;;;;33.15;6.72;;;15.40;99.90;;;;;;4968203;28;20018;-66
2022/07/04 12:48:29;;;;;;;35.58;6.03;;;15.40;99.90;;;;;;4967501;28;20583;-63
2022/07/04 12:51:09;;;;;;;34.22;6.93;;;15.40;99.90;;;;;;4967059;28;20043;-64
2022/07/04 12:53:41;;;;;;;41.22;6.43;;;15.40;99.90;;;;;;4957155;28;20058;-64
2022/07/04 12:56:09;;;;;;;44.05;8.98;;;15.40;99.90;;;;;;4966387;28;20038;-64
2022/07/04 12:58:37;;;;;;;30.92;6.20;;;15.40;99.90;;;;;;4966739;28;20031;-67
2022/07/04 13:01:05;;;;;;;40.40;5.38;;;15.30;99.90;;;;;;4967414;28;20484;-70
2022/07/04 13:03:33;;;;;;;29.98;5.97;;;15.30;99.90;;;;;;4967034;28;20596;-69
2022/07/04 13:06:00;;;;;;;36.38;5.95;;;15.30;99.90;;;;;;4966759;28;20078;-68